createdAt,value
2018-05-10T00:02:01.424Z,56.72
2018-05-10T00:04:30.631Z,56.92
2018-05-10T00:06:59.001Z,56.76
2018-05-10T00:09:27.580Z,56.62
2018-05-10T00:11:56.379Z,56.89
2018-05-10T00:14:24.795Z,56.80
2018-05-10T00:16:54.659Z,57.02
2018-05-10T00:19:23.809Z,56.82
2018-05-10T00:21:52.140Z,57.10
2018-05-10T00:24:20.620Z,57.11
2018-05-10T00:26:49.783Z,57.06
2018-05-10T00:29:20.060Z,57.28
2018-05-10T00:31:48.401Z,57.33
2018-05-10T00:34:18.207Z,57.29
2018-05-10T00:36:47.471Z,57.31
2018-05-10T00:39:15.899Z,57.50
2018-05-10T00:41:45.238Z,57.50
2018-05-10T00:44:13.567Z,57.68
2018-05-10T00:46:42.008Z,57.80
2018-05-10T00:49:11.174Z,57.86
2018-05-10T00:51:39.784Z,57.93
2018-05-10T00:54:08.203Z,58.13
2018-05-10T00:56:36.989Z,58.48
2018-05-10T00:59:06.210Z,58.47
2018-05-10T01:01:34.709Z,58.61
2018-05-10T01:04:03.112Z,58.75
2018-05-10T01:06:31.696Z,58.69
2018-05-10T01:09:00.465Z,58.62
2018-05-10T01:11:28.998Z,58.79
2018-05-10T01:13:57.563Z,58.66
2018-05-10T01:16:27.214Z,58.78
2018-05-10T01:18:55.926Z,58.95
2018-05-10T01:21:24.268Z,58.67
2018-05-10T01:23:56.661Z,58.85
2018-05-10T01:26:27.862Z,58.87
2018-05-10T01:28:56.274Z,58.94
2018-05-10T01:31:24.727Z,59.06
2018-05-10T01:33:53.189Z,58.97
2018-05-10T01:36:22.551Z,59.20
2018-05-10T01:38:51.620Z,59.48
2018-05-10T01:41:24.249Z,59.25
2018-05-10T01:43:53.523Z,59.41
2018-05-10T01:46:22.004Z,59.55
2018-05-10T01:48:50.429Z,59.61
2018-05-10T01:51:18.995Z,59.50
2018-05-10T01:53:47.956Z,59.63
2018-05-10T01:56:16.415Z,59.80
2018-05-10T01:58:45.501Z,59.71
2018-05-10T02:01:14.149Z,59.89
2018-05-10T02:03:44.015Z,60.06
2018-05-10T02:06:13.116Z,59.93
2018-05-10T02:08:42.279Z,60.19
2018-05-10T02:11:10.720Z,60.22
2018-05-10T02:13:39.108Z,60.34
2018-05-10T02:16:07.479Z,60.34
2018-05-10T02:18:35.803Z,60.36
2018-05-10T02:21:04.663Z,60.27
2018-05-10T02:23:33.024Z,60.65
2018-05-10T02:26:01.351Z,60.56
2018-05-10T02:28:30.485Z,60.66
2018-05-10T02:30:58.826Z,60.52
2018-05-10T02:33:27.249Z,60.55
2018-05-10T02:35:55.641Z,60.39
2018-05-10T02:38:23.993Z,60.53
2018-05-10T02:40:52.508Z,60.53
2018-05-10T02:43:20.887Z,60.55
2018-05-10T02:45:49.233Z,60.87
2018-05-10T02:48:17.576Z,61.26
2018-05-10T02:50:46.071Z,61.89
2018-05-10T02:53:15.840Z,62.50
2018-05-10T02:55:44.192Z,62.88
2018-05-10T02:58:12.586Z,62.82
2018-05-10T03:00:40.966Z,62.90
2018-05-10T03:03:09.370Z,63.27
2018-05-10T03:05:37.724Z,63.38
2018-05-10T03:08:06.093Z,63.25
2018-05-10T03:10:34.519Z,63.20
2018-05-10T03:13:02.954Z,63.08
2018-05-10T03:15:31.334Z,62.95
2018-05-10T03:18:01.312Z,62.77
2018-05-10T03:20:30.462Z,62.60
2018-05-10T03:22:58.828Z,62.12
2018-05-10T03:25:27.188Z,62.23
2018-05-10T03:27:55.556Z,62.20
2018-05-10T03:30:23.893Z,62.21
2018-05-10T03:32:52.248Z,62.19
2018-05-10T03:35:20.562Z,62.29
2018-05-10T03:37:49.746Z,62.54
2018-05-10T03:40:18.898Z,62.54
2018-05-10T03:42:47.259Z,62.52
2018-05-10T03:45:16.356Z,62.45
2018-05-10T03:47:45.485Z,62.48
2018-05-10T03:50:13.815Z,62.56
2018-05-10T03:52:43.063Z,62.49
2018-05-10T03:55:11.382Z,62.45
2018-05-10T03:57:39.723Z,62.68
2018-05-10T04:00:08.945Z,62.70
2018-05-10T04:06:18.423Z,62.71
2018-05-10T04:09:04.469Z,62.88
2018-05-10T04:11:32.902Z,62.71
2018-05-10T04:14:02.144Z,62.74
2018-05-10T04:16:30.525Z,62.80
2018-05-10T04:18:58.915Z,62.83
2018-05-10T04:21:27.256Z,62.91
2018-05-10T04:23:56.416Z,63.10
2018-05-10T04:26:24.820Z,63.10
2018-05-10T04:28:53.967Z,63.02
2018-05-10T04:31:22.351Z,63.16
2018-05-10T04:33:50.699Z,63.01
2018-05-10T04:36:19.041Z,63.15
2018-05-10T04:38:48.165Z,62.84
2018-05-10T04:41:16.512Z,63.08
2018-05-10T04:43:44.870Z,63.06
2018-05-10T04:46:13.306Z,62.68
2018-05-10T04:48:41.662Z,62.57
2018-05-10T04:51:10.760Z,62.38
2018-05-10T04:53:40.849Z,62.41
2018-05-10T04:56:09.192Z,62.60
2018-05-10T04:58:38.359Z,62.68
2018-05-10T05:01:07.455Z,62.66
2018-05-10T05:03:37.876Z,62.72
2018-05-10T05:06:06.979Z,62.98
2018-05-10T05:08:36.131Z,62.85
2018-05-10T05:11:04.586Z,62.86
2018-05-10T05:13:32.945Z,62.58
2018-05-10T05:16:01.288Z,62.47
2018-05-10T05:18:29.662Z,62.58
2018-05-10T05:20:58.004Z,62.49
2018-05-10T05:23:27.036Z,62.35
2018-05-10T05:25:55.409Z,61.48
2018-05-10T05:28:23.773Z,61.41
2018-05-10T05:30:53.068Z,61.85
2018-05-10T05:33:21.411Z,61.17
2018-05-10T05:35:49.764Z,61.30
2018-05-10T05:38:18.871Z,61.60
2018-05-10T05:40:48.033Z,61.44
2018-05-10T05:43:16.448Z,61.37
2018-05-10T05:45:44.768Z,61.22
2018-05-10T05:48:13.114Z,60.76
2018-05-10T05:50:42.107Z,60.74
2018-05-10T05:53:10.462Z,60.42
2018-05-10T05:55:38.786Z,60.22
2018-05-10T05:58:07.226Z,60.09
2018-05-10T06:00:36.336Z,59.80
2018-05-10T06:03:05.396Z,59.71
2018-05-10T06:05:33.735Z,59.21
2018-05-10T06:08:02.110Z,59.19
2018-05-10T06:10:30.598Z,59.00
2018-05-10T06:12:58.913Z,58.44
2018-05-10T06:15:27.224Z,58.23
2018-05-10T06:17:55.601Z,58.00
2018-05-10T06:20:23.938Z,57.74
2018-05-10T06:22:52.697Z,57.79
2018-05-10T06:25:21.043Z,57.12
2018-05-10T06:27:49.395Z,57.06
2018-05-10T06:30:17.743Z,56.98
2018-05-10T06:32:46.825Z,56.92
2018-05-10T06:35:15.163Z,57.00
2018-05-10T06:37:44.253Z,56.72
2018-05-10T06:40:13.420Z,56.41
2018-05-10T06:42:41.781Z,56.58
2018-05-10T06:45:10.151Z,56.56
2018-05-10T06:47:38.477Z,56.57
2018-05-10T06:50:07.595Z,56.56
2018-05-10T06:52:35.926Z,56.16
2018-05-10T06:55:05.235Z,56.10
2018-05-10T06:57:33.573Z,55.88
2018-05-10T07:00:02.001Z,55.38
2018-05-10T07:02:30.413Z,54.81
2018-05-10T07:04:59.566Z,54.65
2018-05-10T07:07:28.743Z,54.53
2018-05-10T07:09:57.149Z,54.66
2018-05-10T07:12:26.111Z,54.17
2018-05-10T07:14:54.467Z,54.12
2018-05-10T07:17:22.835Z,54.19
2018-05-10T07:19:52.134Z,54.07
2018-05-10T07:22:20.508Z,53.97
2018-05-10T07:24:49.198Z,54.34
2018-05-10T07:27:17.617Z,54.20
2018-05-10T07:29:45.945Z,54.11
2018-05-10T07:32:15.051Z,53.69
2018-05-10T07:34:43.634Z,54.29
2018-05-10T07:37:11.971Z,54.23
2018-05-10T07:39:40.347Z,53.44
2018-05-10T07:42:08.720Z,53.87
2018-05-10T07:44:37.069Z,53.52
2018-05-10T07:47:05.516Z,52.77
2018-05-10T07:49:33.861Z,52.85
2018-05-10T07:52:02.225Z,52.73
2018-05-10T07:54:30.574Z,52.78
2018-05-10T07:56:58.934Z,53.28
2018-05-10T07:59:27.293Z,52.99
2018-05-10T08:01:56.041Z,53.14
2018-05-10T08:04:24.407Z,52.89
2018-05-10T08:06:52.758Z,52.64
2018-05-10T08:09:21.890Z,51.83
2018-05-10T08:11:50.442Z,51.78
2018-05-10T08:14:18.790Z,51.73
2018-05-10T08:16:48.867Z,51.76
2018-05-10T08:19:17.522Z,51.47
2018-05-10T08:21:46.643Z,51.40
2018-05-10T08:24:16.128Z,51.23
2018-05-10T08:26:44.513Z,50.35
2018-05-10T08:29:12.947Z,50.07
2018-05-10T08:31:41.284Z,49.97
2018-05-10T08:34:10.380Z,49.81
2018-05-10T08:36:38.753Z,50.02
2018-05-10T08:39:07.843Z,49.54
2018-05-10T08:41:36.249Z,49.33
2018-05-10T08:44:05.093Z,49.36
2018-05-10T08:46:33.468Z,48.98
2018-05-10T08:49:02.703Z,48.67
2018-05-10T08:51:31.134Z,48.88
2018-05-10T08:54:00.232Z,48.86
2018-05-10T08:56:29.337Z,48.92
2018-05-10T08:58:58.450Z,48.63
2018-05-10T09:01:26.819Z,48.82
2018-05-10T09:03:55.963Z,48.85
2018-05-10T09:06:24.351Z,49.09
2018-05-10T09:08:52.785Z,49.03
2018-05-10T09:11:21.192Z,49.59
2018-05-10T09:13:49.953Z,49.46
2018-05-10T09:16:18.352Z,49.70
2018-05-10T09:18:46.913Z,50.10
2018-05-10T09:21:15.333Z,50.29
2018-05-10T09:23:43.837Z,50.52
2018-05-10T09:26:14.505Z,50.62
2018-05-10T09:28:43.220Z,51.00
2018-05-10T09:31:11.617Z,51.19
2018-05-10T09:33:40.015Z,50.88
2018-05-10T09:36:09.265Z,51.16
2018-05-10T09:38:37.648Z,50.48
2018-05-10T09:41:06.815Z,50.65
2018-05-10T09:43:35.933Z,51.03
2018-05-10T09:46:04.326Z,51.28
2018-05-10T09:48:32.693Z,51.22
2018-05-10T09:51:03.602Z,51.57
2018-05-10T09:53:33.652Z,51.33
2018-05-10T09:56:02.065Z,51.34
2018-05-10T09:58:30.413Z,50.81
2018-05-10T10:00:58.821Z,50.82
2018-05-10T10:03:27.456Z,50.94
2018-05-10T10:05:55.867Z,51.29
2018-05-10T10:08:24.381Z,51.22
2018-05-10T10:10:52.951Z,51.27
2018-05-10T10:13:21.384Z,51.69
2018-05-10T10:15:50.943Z,51.49
2018-05-10T10:18:19.333Z,51.23
2018-05-10T10:20:47.754Z,51.46
2018-05-10T10:23:18.856Z,51.21
2018-05-10T10:25:47.958Z,51.14
2018-05-10T10:28:17.090Z,50.67
2018-05-10T10:30:45.435Z,50.41
2018-05-10T10:33:15.211Z,50.42
2018-05-10T10:35:43.622Z,50.45
2018-05-10T10:38:12.890Z,50.26
2018-05-10T10:40:41.256Z,50.02
2018-05-10T10:43:11.247Z,50.46
2018-05-10T10:45:40.820Z,50.88
2018-05-10T10:48:10.077Z,51.18
2018-05-10T10:50:38.639Z,51.13
2018-05-10T10:53:07.036Z,51.13
2018-05-10T10:55:35.445Z,50.81
2018-05-10T10:58:03.781Z,50.42
2018-05-10T11:00:32.256Z,50.73
2018-05-10T11:03:01.283Z,50.82
2018-05-10T11:05:30.309Z,50.20
2018-05-10T11:07:59.503Z,50.21
2018-05-10T11:10:27.952Z,50.00
2018-05-10T11:12:59.064Z,50.28
2018-05-10T11:15:27.516Z,49.75
2018-05-10T11:17:56.955Z,49.43
2018-05-10T11:20:25.370Z,49.38
2018-05-10T11:22:54.166Z,49.48
2018-05-10T11:25:23.048Z,49.36
2018-05-10T11:27:51.470Z,49.62
2018-05-10T11:30:20.710Z,49.54
2018-05-10T11:32:49.184Z,49.52
2018-05-10T11:35:18.360Z,49.51
2018-05-10T11:37:47.570Z,49.65
2018-05-10T11:40:16.792Z,49.81
2018-05-10T11:42:45.267Z,49.26
2018-05-10T11:45:13.735Z,48.96
2018-05-10T11:47:42.077Z,48.67
2018-05-10T11:50:12.032Z,48.48
2018-05-10T11:52:40.435Z,48.66
2018-05-10T11:55:08.798Z,49.21
2018-05-10T11:57:37.934Z,48.94
2018-05-10T12:00:07.882Z,48.81
2018-05-10T12:02:36.379Z,48.59
2018-05-10T12:05:05.580Z,48.51
2018-05-10T12:07:34.013Z,48.42
2018-05-10T12:10:02.496Z,48.04
2018-05-10T12:12:31.671Z,48.05
2018-05-10T12:15:00.899Z,47.92
2018-05-10T12:17:30.075Z,47.69
2018-05-10T12:19:58.427Z,47.58
2018-05-10T12:22:27.612Z,47.66
2018-05-10T12:24:56.017Z,48.00
2018-05-10T12:27:24.604Z,48.13
2018-05-10T12:29:52.964Z,47.97
2018-05-10T12:32:21.391Z,48.17
2018-05-10T12:34:49.743Z,48.32
2018-05-10T12:37:18.241Z,48.56
2018-05-10T12:39:46.588Z,48.73
2018-05-10T12:42:15.868Z,49.44
2018-05-10T12:44:45.012Z,50.25
2018-05-10T12:47:13.446Z,50.43
2018-05-10T12:49:41.777Z,50.62
2018-05-10T12:52:11.777Z,51.50
2018-05-10T12:54:40.153Z,51.49
2018-05-10T12:57:09.456Z,51.59
2018-05-10T12:59:37.829Z,52.22
2018-05-10T13:02:06.374Z,52.48
2018-05-10T13:04:36.297Z,52.54
2018-05-10T13:07:04.629Z,52.99
2018-05-10T13:09:35.168Z,53.13
2018-05-10T13:12:04.313Z,53.35
2018-05-10T13:14:33.502Z,53.34
2018-05-10T13:17:02.205Z,52.99
2018-05-10T13:19:31.051Z,53.30
2018-05-10T13:21:59.453Z,53.48
2018-05-10T13:24:28.167Z,53.74
2018-05-10T13:26:56.549Z,53.89
2018-05-10T13:29:24.901Z,53.83
2018-05-10T13:31:53.310Z,53.64
2018-05-10T13:34:21.669Z,53.41
2018-05-10T13:36:50.680Z,53.52
2018-05-10T13:39:19.997Z,53.67
2018-05-10T13:41:49.126Z,53.82
2018-05-10T13:44:18.040Z,53.96
2018-05-10T13:46:46.380Z,53.60
2018-05-10T13:49:15.540Z,53.64
2018-05-10T13:51:44.818Z,53.68
2018-05-10T13:54:13.213Z,53.41
2018-05-10T13:56:43.255Z,53.56
2018-05-10T13:59:11.870Z,53.46
2018-05-10T14:01:41.195Z,52.58
2018-05-10T14:04:09.577Z,52.15
2018-05-10T14:06:38.048Z,52.07
2018-05-10T14:09:06.512Z,51.88
2018-05-10T14:11:35.745Z,52.08
2018-05-10T14:14:04.131Z,51.74
2018-05-10T14:16:32.538Z,51.83
2018-05-10T14:19:01.659Z,51.47
2018-05-10T14:21:30.937Z,51.32
2018-05-10T14:24:00.834Z,51.02
2018-05-10T14:26:29.181Z,51.01
2018-05-10T14:28:57.641Z,50.26
2018-05-10T14:31:26.092Z,49.72
2018-05-10T14:33:55.246Z,49.88
2018-05-10T14:36:23.581Z,49.73
2018-05-10T14:38:52.669Z,49.99
2018-05-10T14:41:21.825Z,49.53
2018-05-10T14:43:50.319Z,49.35
2018-05-10T14:46:18.732Z,49.64
2018-05-10T14:48:47.836Z,50.43
2018-05-10T14:51:16.240Z,50.19
2018-05-10T14:53:44.648Z,50.29
2018-05-10T14:56:12.995Z,50.01
2018-05-10T14:58:42.056Z,50.27
2018-05-10T15:01:11.352Z,49.94
2018-05-10T15:03:40.718Z,49.71
2018-05-10T15:06:09.084Z,49.89
2018-05-10T15:08:38.772Z,50.96
2018-05-10T15:11:07.973Z,51.29
2018-05-10T15:13:36.413Z,51.63
2018-05-10T15:16:04.758Z,52.03
2018-05-10T15:18:34.070Z,52.23
2018-05-10T15:21:03.182Z,51.66
2018-05-10T15:23:32.299Z,51.36
2018-05-10T15:26:01.376Z,51.68
2018-05-10T15:28:30.531Z,50.97
2018-05-10T15:30:59.748Z,51.60
2018-05-10T15:33:28.122Z,51.57
2018-05-10T15:35:56.747Z,51.96
2018-05-10T15:38:25.858Z,52.13
2018-05-10T15:40:54.251Z,52.33
2018-05-10T15:43:22.614Z,52.76
2018-05-10T15:45:51.050Z,52.66
2018-05-10T15:48:19.371Z,52.90
2018-05-10T15:50:47.763Z,53.09
2018-05-10T15:53:16.138Z,53.19
2018-05-10T15:55:44.499Z,53.70
2018-05-10T15:58:14.038Z,53.48
2018-05-10T16:00:43.759Z,53.72
2018-05-10T16:03:12.128Z,54.19
2018-05-10T16:05:41.351Z,54.01
2018-05-10T16:08:09.800Z,54.03
2018-05-10T16:10:39.135Z,53.46
2018-05-10T16:13:07.484Z,53.68
2018-05-10T16:15:36.896Z,52.90
2018-05-10T16:18:05.282Z,53.06
2018-05-10T16:20:33.690Z,53.33
2018-05-10T16:23:02.041Z,53.45
2018-05-10T16:25:30.372Z,53.01
2018-05-10T16:27:59.582Z,52.88
2018-05-10T16:30:28.457Z,52.75
2018-05-10T16:32:56.788Z,52.72
2018-05-10T16:35:25.144Z,52.71
2018-05-10T16:37:53.520Z,53.14
2018-05-10T16:40:22.283Z,53.33
2018-05-10T16:42:50.668Z,53.40
2018-05-10T16:45:19.741Z,53.05
2018-05-10T16:47:48.304Z,53.21
2018-05-10T16:50:16.745Z,53.04
2018-05-10T16:52:45.091Z,53.00
2018-05-10T16:55:14.213Z,53.26
2018-05-10T16:57:42.928Z,53.23
2018-05-10T17:00:11.383Z,53.12
2018-05-10T17:02:40.602Z,53.28
2018-05-10T17:05:09.543Z,53.43
2018-05-10T17:07:39.532Z,53.50
2018-05-10T17:10:08.697Z,53.99
2018-05-10T17:12:37.890Z,54.29
2018-05-10T17:15:06.289Z,54.64
2018-05-10T17:17:34.626Z,54.90
2018-05-10T17:20:03.071Z,54.60
2018-05-10T17:22:31.477Z,53.84
2018-05-10T17:25:00.994Z,52.56
2018-05-10T17:27:29.389Z,53.18
2018-05-10T17:29:57.784Z,52.72
2018-05-10T17:32:26.196Z,52.95
2018-05-10T17:34:54.657Z,52.67
2018-05-10T17:37:24.896Z,52.81
2018-05-10T17:39:54.091Z,52.45
2018-05-10T17:42:22.440Z,52.43
2018-05-10T17:44:50.789Z,51.80
2018-05-10T17:47:20.033Z,51.54
2018-05-10T17:49:48.448Z,51.89
2018-05-10T17:52:17.571Z,51.98
2018-05-10T17:54:46.510Z,52.25
2018-05-10T17:57:14.837Z,52.49
2018-05-10T17:59:45.512Z,52.73
2018-05-10T18:02:14.701Z,53.08
2018-05-10T18:04:43.371Z,53.09
2018-05-10T18:07:11.824Z,53.18
2018-05-10T18:09:40.132Z,53.16
2018-05-10T18:12:09.330Z,53.01
2018-05-10T18:14:38.471Z,53.33
2018-05-10T18:17:07.918Z,53.54
2018-05-10T18:19:36.266Z,53.69
2018-05-10T18:22:05.384Z,53.87
2018-05-10T18:24:34.523Z,53.57
2018-05-10T18:27:02.936Z,53.88
2018-05-10T18:29:32.132Z,54.15
2018-05-10T18:32:01.280Z,54.00
2018-05-10T18:34:29.612Z,53.87
2018-05-10T18:36:58.729Z,54.07
2018-05-10T18:39:27.178Z,54.46
2018-05-10T18:41:56.374Z,54.54
2018-05-10T18:44:25.528Z,55.03
2018-05-10T18:46:53.921Z,55.12
2018-05-10T18:49:23.293Z,55.05
2018-05-10T18:51:53.188Z,54.40
2018-05-10T18:54:21.621Z,54.39
2018-05-10T18:56:50.830Z,54.36
2018-05-10T18:59:19.282Z,53.91
2018-05-10T19:01:47.676Z,53.88
2018-05-10T19:04:16.020Z,53.77
2018-05-10T19:06:44.360Z,53.55
2018-05-10T19:09:13.534Z,53.70
2018-05-10T19:11:43.690Z,53.98
2018-05-10T19:14:12.856Z,53.80
2018-05-10T19:16:41.249Z,54.04
2018-05-10T19:19:10.539Z,53.99
2018-05-10T19:21:40.549Z,54.07
2018-05-10T19:24:08.911Z,53.98
2018-05-10T19:26:37.324Z,54.01
2018-05-10T19:29:05.660Z,53.92
2018-05-10T19:31:34.125Z,53.96
2018-05-10T19:34:02.788Z,53.73
2018-05-10T19:36:31.758Z,53.54
2018-05-10T19:39:00.966Z,53.49
2018-05-10T19:41:30.565Z,53.66
2018-05-10T19:43:59.681Z,53.61
2018-05-10T19:46:30.676Z,53.86
2018-05-10T19:48:59.029Z,53.65
2018-05-10T19:51:27.409Z,54.01
2018-05-10T19:53:56.496Z,54.21
2018-05-10T19:56:24.883Z,54.37
2018-05-10T19:58:53.233Z,54.40
2018-05-10T20:01:21.707Z,54.30
2018-05-10T20:03:50.072Z,54.46
2018-05-10T20:06:20.033Z,54.55
2018-05-10T20:08:48.423Z,54.62
2018-05-10T20:11:16.764Z,54.40
2018-05-10T20:13:45.993Z,54.32
2018-05-10T20:16:14.575Z,54.38
2018-05-10T20:18:43.070Z,54.48
2018-05-10T20:21:12.986Z,54.34
2018-05-10T20:23:41.355Z,54.32
2018-05-10T20:26:09.681Z,54.65
2018-05-10T20:28:38.849Z,54.54
2018-05-10T20:31:07.269Z,54.30
2018-05-10T20:33:36.390Z,54.20
2018-05-10T20:36:04.742Z,54.44
2018-05-10T20:38:33.883Z,54.50
2018-05-10T20:41:02.219Z,54.43
2018-05-10T20:43:31.462Z,54.28
2018-05-10T20:46:00.609Z,54.30
2018-05-10T20:48:29.751Z,54.47
2018-05-10T20:50:58.485Z,54.65
2018-05-10T20:53:27.626Z,54.51
2018-05-10T20:55:56.808Z,54.59
2018-05-10T20:58:25.127Z,54.76
2018-05-10T21:00:53.892Z,55.00
2018-05-10T21:03:23.140Z,54.99
2018-05-10T21:05:52.364Z,55.03
2018-05-10T21:08:21.492Z,55.10
2018-05-10T21:10:49.959Z,55.21
2018-05-10T21:13:18.351Z,55.33
2018-05-10T21:15:46.969Z,55.46
2018-05-10T21:18:15.758Z,55.21
2018-05-10T21:20:44.136Z,54.88
2018-05-10T21:23:14.995Z,55.05
2018-05-10T21:25:44.763Z,55.23
2018-05-10T21:28:13.953Z,55.21
2018-05-10T21:30:42.303Z,55.56
2018-05-10T21:33:11.624Z,55.67
2018-05-10T21:35:41.236Z,55.94
2018-05-10T21:38:10.412Z,56.20
2018-05-10T21:40:39.121Z,56.38
2018-05-10T21:43:07.490Z,56.62
2018-05-10T21:45:36.904Z,56.74
2018-05-10T21:48:05.638Z,56.43
2018-05-10T21:50:34.812Z,56.32
2018-05-10T21:53:03.153Z,56.11
2018-05-10T21:55:31.540Z,56.03
2018-05-10T21:57:59.878Z,56.29
2018-05-10T22:00:28.992Z,56.56
2018-05-10T22:02:57.800Z,56.50
2018-05-10T22:05:26.701Z,56.51
2018-05-10T22:07:55.853Z,56.61
2018-05-10T22:10:24.966Z,56.86
2018-05-10T22:12:54.390Z,56.91
2018-05-10T22:15:22.781Z,57.14
2018-05-10T22:17:51.977Z,57.27
2018-05-10T22:20:21.568Z,57.04
2018-05-10T22:22:50.788Z,57.40
2018-05-10T22:25:19.901Z,57.75
2018-05-10T22:27:48.398Z,57.92
2018-05-10T22:30:18.489Z,57.88
2018-05-10T22:32:47.772Z,57.82
2018-05-10T22:35:16.269Z,57.95
2018-05-10T22:37:44.640Z,57.99
2018-05-10T22:40:13.083Z,58.41
2018-05-10T22:42:42.507Z,58.75
2018-05-10T22:45:11.101Z,59.03
2018-05-10T22:47:40.264Z,58.86
2018-05-10T22:50:09.448Z,58.65
2018-05-10T22:52:37.888Z,59.45
2018-05-10T22:55:08.045Z,59.82
2018-05-10T22:57:38.107Z,59.63
2018-05-10T23:00:07.574Z,59.72
2018-05-10T23:02:36.813Z,59.84
2018-05-10T23:05:05.279Z,60.28
2018-05-10T23:07:33.771Z,60.23
2018-05-10T23:10:02.117Z,60.34
2018-05-10T23:12:32.028Z,60.55
2018-05-10T23:15:01.151Z,60.89
2018-05-10T23:17:30.420Z,61.02
2018-05-10T23:19:59.530Z,60.81
2018-05-10T23:22:28.668Z,60.95
2018-05-10T23:24:57.116Z,61.23
2018-05-10T23:27:25.584Z,61.21
2018-05-10T23:29:56.121Z,60.96
2018-05-10T23:32:25.668Z,60.81
2018-05-10T23:34:54.040Z,60.86
2018-05-10T23:37:22.702Z,60.87
2018-05-10T23:39:51.637Z,61.03
2018-05-10T23:42:20.008Z,60.85
2018-05-10T23:44:48.496Z,60.90
2018-05-10T23:47:16.867Z,60.48
2018-05-10T23:49:45.502Z,60.67
2018-05-10T23:52:13.848Z,60.83
2018-05-10T23:54:43.934Z,61.53
2018-05-10T23:57:12.621Z,61.85
2018-05-10T23:59:40.944Z,62.17
